サンホセ/フアン・サンタ・マリア の空港の天気 - METARとTAF

フアン・サンタ・マリア国際空港 ( MROC / SJO ) - コスタリカ サンホセ
飛行場実況気象(Metar)
観測時間10/19 22:00 CST (10/20 04:00 UTC)
風向・風速不定 1m/s
視程10km以上
天気現象
少しの雲 雲底高度 60m
気温20℃
湿度100%
気圧1017hPa
METARMROC 200400Z VRB02KT 9999 FEW002 20/20 A3004 NOSIG
過去の天気等 Google飛行場航空写真 Wunderground天気予報

過去48時間のMETAR

飛行場予報(TAF)
発表時間: 10/19 17:00 CST (10/19 23:00 UTC)
予報対象時間: 19日18時 CST ~ 20日18時 CST
風向・風速西南西 3m/s
視程10km以上
少しの雲 雲底高度 910m
全天の4割程度の雲 雲底高度 3660m
19日18時 CST ~ 19日22時 CST に一時的に
天気現象雨 散在した霧
全天の8割程度の雲 雲底高度 610m
19日23時 CST ~ 20日1時 CST に徐々に
風向・風速東北東 3m/s
20日8時 CST ~ 20日10時 CST に徐々に
風向・風速南西 4m/s
20日13時 CST ~ 20日17時 CST に一時的に
視程5000m
天気現象弱い雷雨
全天の4割程度の積乱雲 雲底高度 460m
全天の8割程度の雲 雲底高度 910m
MROC 192300Z 2000/2024 25005KT 9999 FEW030 SCT120 TX28/2018Z TN17/2011Z
TEMPO 2000/2004 RA BCFG BKN020
BECMG 2005/2007 06005KT
BECMG 2014/2016 23008KT
TEMPO 2019/2023 5000 -TSRA SCT015CB BKN030